SECO

Details ICAO SECO (OCC)
Name FRANCISCO DE ORELLANA
Region Equador
Timezone America/Guayaquil (UTC-5.0)
Plans Departing 1
Arriving 2
Stats Elevation 834 ft / 254 m (AMSL)
Location -0.460927° -76.987829°
Runways 1
Magnetic Variation 4.482° W
Sunrise 2017-12-14 10:59:43 UTC / 2017-12-14 05:59:43 Local
Sunset 2017-12-14 23:08:33 UTC / 2017-12-14 18:08:33 Local
Advertisement - Login to hide

Runways

ID Width Length Bearing (true) Bearing (mag) Surface Threshold Offset Overrun Length
15 90 ft / 27 m 6,791 ft / 2,070 m 153.79° 158.27° Asphalt 0 ft / 0 m 0 ft / 0 m
33 90 ft / 27 m 6,791 ft / 2,070 m 333.79° 338.27° Asphalt 0 ft / 0 m 0 ft / 0 m

Map

Weather


0- 5 10 15 20 25 30 35+ Temperature / ° C

Clouds and Precipitation
Forecast for 2017-12-14 18:00 UTC. Updated 22 minutes ago

Ground ~20,000 ft ~40,000 ft Winds

METAR

SECO 141300Z 25003KT 9999 SCT016 BKN090 24/23 Q1014 RMK A2995

TAF

Not found

Frequencies

Tower 123.50 MHz COCA TWR
Approach 121.20 MHz QUITO APP
Approach 119.70 MHz QUITO APP
Warning: Do not use this data for real-world aviation or navigation. No guarantee of current accuracy is given.